sensor_id;sensor_type;location;lat;lon;timestamp;pressure;altitude;pressure_sealevel;temperature;humidity
31681;BME280;18281;51.364;9.566;2022-09-21T00:01:09;100995.72;;;4.53;100.00
31681;BME280;18281;51.364;9.566;2022-09-21T00:03:36;101003.66;;;4.46;100.00
31681;BME280;18281;51.364;9.566;2022-09-21T00:08:52;101009.66;;;4.48;100.00
31681;BME280;18281;51.364;9.566;2022-09-21T00:11:29;101004.59;;;4.38;100.00
31681;BME280;18281;51.364;9.566;2022-09-21T00:13:59;101009.63;;;4.51;100.00
31681;BME280;18281;51.364;9.566;2022-09-21T00:16:28;101016.28;;;4.70;100.00
31681;BME280;18281;51.364;9.566;2022-09-21T00:18:55;101005.84;;;4.72;100.00
31681;BME280;18281;51.364;9.566;2022-09-21T00:21:20;101013.13;;;4.47;100.00
31681;BME280;18281;51.364;9.566;2022-09-21T00:23:46;101013.22;;;4.42;100.00
31681;BME280;18281;51.364;9.566;2022-09-21T00:26:20;101008.00;;;4.42;100.00
31681;BME280;18281;51.364;9.566;2022-09-21T00:28:45;101005.41;;;4.42;100.00
31681;BME280;18281;51.364;9.566;2022-09-21T00:31:16;101017.03;;;4.16;100.00
31681;BME280;18281;51.364;9.566;2022-09-21T00:33:43;101020.75;;;3.95;100.00
31681;BME280;18281;51.364;9.566;2022-09-21T00:36:11;101018.72;;;4.20;100.00
31681;BME280;18281;51.364;9.566;2022-09-21T00:38:37;101020.38;;;4.25;100.00
31681;BME280;18281;51.364;9.566;2022-09-21T00:41:05;101016.94;;;4.21;100.00
31681;BME280;18281;51.364;9.566;2022-09-21T00:43:44;101019.03;;;3.93;100.00
31681;BME280;18281;51.364;9.566;2022-09-21T00:46:31;101025.84;;;4.04;100.00
31681;BME280;18281;51.364;9.566;2022-09-21T00:48:57;101029.38;;;3.99;100.00
31681;BME280;18281;51.364;9.566;2022-09-21T00:51:22;101033.66;;;4.03;100.00
31681;BME280;18281;51.364;9.566;2022-09-21T00:53:53;101020.56;;;4.12;100.00
31681;BME280;18281;51.364;9.566;2022-09-21T00:56:21;101018.06;;;4.00;100.00
31681;BME280;18281;51.364;9.566;2022-09-21T00:58:49;101027.69;;;3.92;100.00
31681;BME280;18281;51.364;9.566;2022-09-21T01:01:15;101029.41;;;3.94;100.00
31681;BME280;18281;51.364;9.566;2022-09-21T01:03:43;101036.31;;;3.97;100.00
31681;BME280;18281;51.364;9.566;2022-09-21T01:06:11;101031.78;;;4.14;100.00
31681;BME280;18281;51.364;9.566;2022-09-21T01:08:37;101026.34;;;4.33;100.00
31681;BME280;18281;51.364;9.566;2022-09-21T01:17:02;101026.69;;;4.05;100.00
31681;BME280;18281;51.364;9.566;2022-09-21T01:19:39;101032.44;;;4.30;100.00
31681;BME280;18281;51.364;9.566;2022-09-21T01:25:17;101029.88;;;4.29;100.00
31681;BME280;18281;51.364;9.566;2022-09-21T01:30:40;101041.31;;;4.14;100.00
31681;BME280;18281;51.364;9.566;2022-09-21T01:33:23;101042.84;;;4.30;100.00
31681;BME280;18281;51.364;9.566;2022-09-21T01:35:55;101050.03;;;4.10;100.00
31681;BME280;18281;51.364;9.566;2022-09-21T01:38:25;101046.41;;;4.23;100.00
31681;BME280;18281;51.364;9.566;2022-09-21T01:40:57;101049.22;;;4.04;100.00
31681;BME280;18281;51.364;9.566;2022-09-21T01:43:36;101047.56;;;3.96;100.00
31681;BME280;18281;51.364;9.566;2022-09-21T01:46:05;101046.06;;;3.78;100.00
31681;BME280;18281;51.364;9.566;2022-09-21T01:48:37;101053.72;;;3.90;100.00
31681;BME280;18281;51.364;9.566;2022-09-21T01:51:06;101051.00;;;3.99;100.00
31681;BME280;18281;51.364;9.566;2022-09-21T01:53:52;101052.63;;;4.08;100.00
31681;BME280;18281;51.364;9.566;2022-09-21T01:56:24;101045.94;;;3.88;100.00
31681;BME280;18281;51.364;9.566;2022-09-21T01:59:02;101046.69;;;3.98;100.00
31681;BME280;18281;51.364;9.566;2022-09-21T02:01:29;101045.56;;;4.19;100.00
31681;BME280;18281;51.364;9.566;2022-09-21T02:04:01;101051.28;;;3.73;100.00
31681;BME280;18281;51.364;9.566;2022-09-21T02:06:29;101053.19;;;3.59;100.00
31681;BME280;18281;51.364;9.566;2022-09-21T02:08:56;101050.94;;;4.04;100.00
31681;BME280;18281;51.364;9.566;2022-09-21T02:11:22;101045.16;;;3.82;100.00
31681;BME280;18281;51.364;9.566;2022-09-21T02:13:49;101053.84;;;3.78;100.00
31681;BME280;18281;51.364;9.566;2022-09-21T02:16:37;101058.88;;;3.93;100.00
31681;BME280;18281;51.364;9.566;2022-09-21T02:22:10;101053.53;;;4.07;100.00
31681;BME280;18281;51.364;9.566;2022-09-21T02:30:18;101051.94;;;3.94;100.00
31681;BME280;18281;51.364;9.566;2022-09-21T02:33:10;101049.22;;;4.04;100.00
31681;BME280;18281;51.364;9.566;2022-09-21T02:38:39;101043.03;;;4.13;100.00
31681;BME280;18281;51.364;9.566;2022-09-21T02:41:13;101038.63;;;4.20;100.00
31681;BME280;18281;51.364;9.566;2022-09-21T02:46:34;101043.53;;;3.70;100.00
31681;BME280;18281;51.364;9.566;2022-09-21T02:49:09;101054.13;;;3.48;100.00
31681;BME280;18281;51.364;9.566;2022-09-21T02:51:43;101054.81;;;3.66;100.00
31681;BME280;18281;51.364;9.566;2022-09-21T02:54:13;101050.28;;;3.85;100.00
31681;BME280;18281;51.364;9.566;2022-09-21T02:56:41;101048.66;;;3.78;100.00
31681;BME280;18281;51.364;9.566;2022-09-21T02:59:08;101045.06;;;3.88;100.00
31681;BME280;18281;51.364;9.566;2022-09-21T03:01:34;101050.69;;;3.43;100.00
31681;BME280;18281;51.364;9.566;2022-09-21T03:04:00;101062.00;;;3.36;100.00
31681;BME280;18281;51.364;9.566;2022-09-21T03:06:26;101058.97;;;3.82;100.00
31681;BME280;18281;51.364;9.566;2022-09-21T03:08:52;101054.16;;;3.45;100.00
31681;BME280;18281;51.364;9.566;2022-09-21T03:11:18;101055.66;;;3.68;100.00
31681;BME280;18281;51.364;9.566;2022-09-21T03:13:45;101055.75;;;3.60;100.00
31681;BME280;18281;51.364;9.566;2022-09-21T03:16:11;101054.09;;;3.51;100.00
31681;BME280;18281;51.364;9.566;2022-09-21T03:18:37;101063.66;;;3.49;100.00
31681;BME280;18281;51.364;9.566;2022-09-21T03:21:04;101063.56;;;3.55;100.00
31681;BME280;18281;51.364;9.566;2022-09-21T03:23:29;101060.31;;;3.32;100.00
31681;BME280;18281;51.364;9.566;2022-09-21T03:25:55;101068.75;;;3.59;100.00
31681;BME280;18281;51.364;9.566;2022-09-21T03:28:21;101067.81;;;3.66;100.00
31681;BME280;18281;51.364;9.566;2022-09-21T03:30:52;101073.03;;;3.64;100.00
31681;BME280;18281;51.364;9.566;2022-09-21T03:33:18;101068.50;;;3.83;100.00
31681;BME280;18281;51.364;9.566;2022-09-21T03:35:44;101072.06;;;3.71;100.00
31681;BME280;18281;51.364;9.566;2022-09-21T03:38:10;101071.28;;;3.63;100.00
31681;BME280;18281;51.364;9.566;2022-09-21T03:40:36;101072.03;;;3.78;100.00
31681;BME280;18281;51.364;9.566;2022-09-21T03:43:02;101067.44;;;4.01;100.00
31681;BME280;18281;51.364;9.566;2022-09-21T03:45:27;101067.50;;;3.97;100.00
31681;BME280;18281;51.364;9.566;2022-09-21T03:47:57;101069.19;;;3.99;100.00
31681;BME280;18281;51.364;9.566;2022-09-21T03:50:24;101075.25;;;4.00;100.00
31681;BME280;18281;51.364;9.566;2022-09-21T03:52:50;101080.53;;;3.91;100.00
31681;BME280;18281;51.364;9.566;2022-09-21T03:55:16;101072.66;;;4.00;100.00
31681;BME280;18281;51.364;9.566;2022-09-21T03:57:41;101064.72;;;4.12;100.00
31681;BME280;18281;51.364;9.566;2022-09-21T04:00:08;101074.44;;;3.95;100.00
31681;BME280;18281;51.364;9.566;2022-09-21T04:02:38;101068.31;;;4.02;100.00
31681;BME280;18281;51.364;9.566;2022-09-21T04:05:06;101073.69;;;3.83;100.00
31681;BME280;18281;51.364;9.566;2022-09-21T04:07:33;101077.09;;;3.90;100.00
31681;BME280;18281;51.364;9.566;2022-09-21T04:10:00;101076.63;;;3.48;100.00
31681;BME280;18281;51.364;9.566;2022-09-21T04:12:26;101080.63;;;3.84;100.00
31681;BME280;18281;51.364;9.566;2022-09-21T04:14:52;101075.72;;;3.55;100.00
31681;BME280;18281;51.364;9.566;2022-09-21T04:17:18;101073.75;;;3.77;100.00
31681;BME280;18281;51.364;9.566;2022-09-21T04:19:43;101083.41;;;3.64;100.00
31681;BME280;18281;51.364;9.566;2022-09-21T04:22:13;101084.41;;;3.48;100.00
31681;BME280;18281;51.364;9.566;2022-09-21T04:24:38;101083.28;;;3.77;100.00
31681;BME280;18281;51.364;9.566;2022-09-21T04:27:07;101082.88;;;3.20;100.00
31681;BME280;18281;51.364;9.566;2022-09-21T04:29:33;101091.34;;;3.44;100.00
31681;BME280;18281;51.364;9.566;2022-09-21T04:31:58;101090.50;;;3.47;100.00
31681;BME280;18281;51.364;9.566;2022-09-21T04:34:24;101092.13;;;3.60;100.00
31681;BME280;18281;51.364;9.566;2022-09-21T04:36:50;101084.31;;;3.60;100.00
31681;BME280;18281;51.364;9.566;2022-09-21T04:39:17;101079.16;;;3.59;100.00
31681;BME280;18281;51.364;9.566;2022-09-21T04:41:43;101084.31;;;3.62;100.00
31681;BME280;18281;51.364;9.566;2022-09-21T04:44:08;101082.44;;;3.73;100.00
31681;BME280;18281;51.364;9.566;2022-09-21T04:46:34;101078.22;;;3.64;100.00
31681;BME280;18281;51.364;9.566;2022-09-21T04:48:59;101077.44;;;3.56;100.00
31681;BME280;18281;51.364;9.566;2022-09-21T04:51:25;101078.38;;;3.43;100.00
31681;BME280;18281;51.364;9.566;2022-09-21T04:53:50;101076.69;;;3.40;100.00
31681;BME280;18281;51.364;9.566;2022-09-21T04:56:17;101075.88;;;3.32;100.00
31681;BME280;18281;51.364;9.566;2022-09-21T04:58:43;101081.00;;;3.38;100.00
31681;BME280;18281;51.364;9.566;2022-09-21T05:01:08;101077.66;;;3.25;100.00
31681;BME280;18281;51.364;9.566;2022-09-21T05:03:34;101089.91;;;3.03;100.00
31681;BME280;18281;51.364;9.566;2022-09-21T05:06:00;101090.50;;;3.45;100.00
31681;BME280;18281;51.364;9.566;2022-09-21T05:08:26;101088.66;;;3.57;100.00
31681;BME280;18281;51.364;9.566;2022-09-21T05:11:13;101093.09;;;3.42;100.00
31681;BME280;18281;51.364;9.566;2022-09-21T05:13:40;101092.19;;;3.45;100.00
31681;BME280;18281;51.364;9.566;2022-09-21T05:16:05;101092.06;;;3.65;100.00
31681;BME280;18281;51.364;9.566;2022-09-21T05:18:31;101098.13;;;3.64;100.00
31681;BME280;18281;51.364;9.566;2022-09-21T05:20:58;101090.22;;;3.75;100.00
31681;BME280;18281;51.364;9.566;2022-09-21T05:23:24;101099.09;;;3.53;100.00
31681;BME280;18281;51.364;9.566;2022-09-21T05:25:50;101100.00;;;3.49;100.00
31681;BME280;18281;51.364;9.566;2022-09-21T05:28:17;101100.72;;;3.62;100.00
31681;BME280;18281;51.364;9.566;2022-09-21T05:30:44;101102.28;;;3.82;100.00
31681;BME280;18281;51.364;9.566;2022-09-21T05:33:12;101104.22;;;3.63;100.00
31681;BME280;18281;51.364;9.566;2022-09-21T05:36:05;101103.31;;;3.64;100.00
31681;BME280;18281;51.364;9.566;2022-09-21T05:38:34;101112.78;;;3.72;100.00
31681;BME280;18281;51.364;9.566;2022-09-21T05:41:00;101118.94;;;3.61;100.00
31681;BME280;18281;51.364;9.566;2022-09-21T05:43:26;101109.41;;;3.60;100.00
31681;BME280;18281;51.364;9.566;2022-09-21T05:46:05;101117.16;;;3.66;100.00
31681;BME280;18281;51.364;9.566;2022-09-21T05:48:42;101129.31;;;3.61;100.00
31681;BME280;18281;51.364;9.566;2022-09-21T06:04:20;101142.38;;;3.51;100.00
31681;BME280;18281;51.364;9.566;2022-09-21T06:06:46;101143.19;;;3.58;100.00
31681;BME280;18281;51.364;9.566;2022-09-21T06:09:11;101150.88;;;3.72;100.00
31681;BME280;18281;51.364;9.566;2022-09-21T06:11:37;101145.81;;;3.57;100.00
31681;BME280;18281;51.364;9.566;2022-09-21T06:14:02;101144.94;;;3.56;100.00
31681;BME280;18281;51.364;9.566;2022-09-21T06:16:36;101151.84;;;3.59;100.00
31681;BME280;18281;51.364;9.566;2022-09-21T06:19:02;101151.75;;;3.71;100.00
31681;BME280;18281;51.364;9.566;2022-09-21T06:21:27;101155.53;;;3.27;100.00
31681;BME280;18281;51.364;9.566;2022-09-21T06:23:52;101156.25;;;3.47;100.00
31681;BME280;18281;51.364;9.566;2022-09-21T06:26:18;101157.72;;;3.79;100.00
31681;BME280;18281;51.364;9.566;2022-09-21T06:28:43;101161.13;;;3.87;100.00
31681;BME280;18281;51.364;9.566;2022-09-21T06:31:08;101167.00;;;4.83;100.00
31681;BME280;18281;51.364;9.566;2022-09-21T06:33:34;101168.34;;;5.13;100.00
31681;BME280;18281;51.364;9.566;2022-09-21T06:36:01;101170.88;;;5.16;100.00
31681;BME280;18281;51.364;9.566;2022-09-21T06:38:27;101169.94;;;5.22;100.00
31681;BME280;18281;51.364;9.566;2022-09-21T06:40:54;101158.59;;;5.24;100.00
31681;BME280;18281;51.364;9.566;2022-09-21T06:43:20;101155.88;;;5.35;100.00
31681;BME280;18281;51.364;9.566;2022-09-21T06:45:57;101151.41;;;5.45;100.00
31681;BME280;18281;51.364;9.566;2022-09-21T06:48:23;101159.31;;;5.39;100.00
31681;BME280;18281;51.364;9.566;2022-09-21T06:50:49;101149.91;;;5.26;100.00
31681;BME280;18281;51.364;9.566;2022-09-21T06:53:15;101147.13;;;4.77;100.00
31681;BME280;18281;51.364;9.566;2022-09-21T06:55:42;101153.97;;;4.84;100.00
31681;BME280;18281;51.364;9.566;2022-09-21T06:58:07;101158.78;;;4.47;100.00
31681;BME280;18281;51.364;9.566;2022-09-21T07:00:33;101161.47;;;4.39;100.00
31681;BME280;18281;51.364;9.566;2022-09-21T07:02:59;101159.91;;;4.96;100.00
31681;BME280;18281;51.364;9.566;2022-09-21T07:05:24;101154.13;;;4.72;100.00
31681;BME280;18281;51.364;9.566;2022-09-21T07:07:50;101155.91;;;4.70;100.00
31681;BME280;18281;51.364;9.566;2022-09-21T07:10:15;101163.78;;;4.64;100.00
31681;BME280;18281;51.364;9.566;2022-09-21T07:12:42;101159.34;;;4.70;100.00
31681;BME280;18281;51.364;9.566;2022-09-21T07:15:08;101163.84;;;4.57;100.00
31681;BME280;18281;51.364;9.566;2022-09-21T07:17:35;101168.09;;;4.65;100.00
31681;BME280;18281;51.364;9.566;2022-09-21T07:20:02;101163.00;;;4.55;100.00
31681;BME280;18281;51.364;9.566;2022-09-21T07:22:28;101157.75;;;4.60;100.00
31681;BME280;18281;51.364;9.566;2022-09-21T07:24:54;101161.09;;;4.68;100.00
31681;BME280;18281;51.364;9.566;2022-09-21T07:27:20;101163.94;;;4.51;100.00
31681;BME280;18281;51.364;9.566;2022-09-21T07:29:45;101169.31;;;4.34;100.00
31681;BME280;18281;51.364;9.566;2022-09-21T07:32:12;101168.97;;;4.65;100.00
31681;BME280;18281;51.364;9.566;2022-09-21T07:34:37;101173.47;;;4.49;100.00
31681;BME280;18281;51.364;9.566;2022-09-21T07:37:03;101170.78;;;4.59;100.00
31681;BME280;18281;51.364;9.566;2022-09-21T07:39:29;101171.63;;;4.61;100.00
31681;BME280;18281;51.364;9.566;2022-09-21T07:41:55;101169.00;;;4.62;100.00
31681;BME280;18281;51.364;9.566;2022-09-21T07:44:22;101167.38;;;4.52;100.00
31681;BME280;18281;51.364;9.566;2022-09-21T07:46:48;101156.56;;;4.84;100.00
31681;BME280;18281;51.364;9.566;2022-09-21T07:49:13;101156.47;;;4.92;100.00
31681;BME280;18281;51.364;9.566;2022-09-21T07:51:39;101158.06;;;5.02;100.00
31681;BME280;18281;51.364;9.566;2022-09-21T07:54:04;101161.69;;;4.92;100.00
31681;BME280;18281;51.364;9.566;2022-09-21T07:56:29;101165.47;;;4.68;100.00
31681;BME280;18281;51.364;9.566;2022-09-21T07:58:55;101163.47;;;4.87;100.00
31681;BME280;18281;51.364;9.566;2022-09-21T08:01:37;101168.50;;;5.01;100.00
31681;BME280;18281;51.364;9.566;2022-09-21T08:04:05;101164.03;;;5.11;100.00
31681;BME280;18281;51.364;9.566;2022-09-21T08:06:33;101170.84;;;5.18;100.00
31681;BME280;18281;51.364;9.566;2022-09-21T08:09:00;101170.75;;;5.26;100.00
31681;BME280;18281;51.364;9.566;2022-09-21T08:11:27;101168.53;;;4.98;100.00
31681;BME280;18281;51.364;9.566;2022-09-21T08:13:55;101175.22;;;5.17;100.00
31681;BME280;18281;51.364;9.566;2022-09-21T08:16:21;101175.47;;;4.99;100.00
31681;BME280;18281;51.364;9.566;2022-09-21T08:18:47;101185.44;;;4.66;100.00
31681;BME280;18281;51.364;9.566;2022-09-21T08:21:12;101180.63;;;5.02;100.00
31681;BME280;18281;51.364;9.566;2022-09-21T08:23:38;101185.72;;;5.10;100.00
31681;BME280;18281;51.364;9.566;2022-09-21T08:26:09;101184.81;;;5.12;100.00
31681;BME280;18281;51.364;9.566;2022-09-21T08:28:35;101187.31;;;5.21;100.00
31681;BME280;18281;51.364;9.566;2022-09-21T08:31:03;101183.22;;;5.05;100.00
31681;BME280;18281;51.364;9.566;2022-09-21T08:33:28;101185.47;;;5.28;100.00
31681;BME280;18281;51.364;9.566;2022-09-21T08:35:56;101178.75;;;5.13;100.00
31681;BME280;18281;51.364;9.566;2022-09-21T08:38:22;101183.84;;;5.21;100.00
31681;BME280;18281;51.364;9.566;2022-09-21T08:40:48;101191.81;;;5.09;100.00
31681;BME280;18281;51.364;9.566;2022-09-21T08:45:45;101203.69;;;6.37;100.00
31681;BME280;18281;51.364;9.566;2022-09-21T08:48:21;101201.47;;;6.63;100.00
31681;BME280;18281;51.364;9.566;2022-09-21T08:50:58;101193.09;;;6.89;100.00
31681;BME280;18281;51.364;9.566;2022-09-21T08:53:30;101188.66;;;6.93;100.00
31681;BME280;18281;51.364;9.566;2022-09-21T08:55:57;101183.94;;;7.12;100.00
31681;BME280;18281;51.364;9.566;2022-09-21T08:58:23;101182.56;;;7.34;100.00
31681;BME280;18281;51.364;9.566;2022-09-21T09:01:20;101182.94;;;7.55;100.00
31681;BME280;18281;51.364;9.566;2022-09-21T09:09:59;101176.31;;;7.76;100.00
31681;BME280;18281;51.364;9.566;2022-09-21T09:18:08;101171.59;;;7.90;100.00
31681;BME280;18281;51.364;9.566;2022-09-21T09:20:42;101170.00;;;8.19;100.00
31681;BME280;18281;51.364;9.566;2022-09-21T09:25:50;101164.03;;;7.80;100.00
31681;BME280;18281;51.364;9.566;2022-09-21T09:28:35;101170.34;;;7.35;100.00
31681;BME280;18281;51.364;9.566;2022-09-21T09:31:26;101176.97;;;6.70;100.00
31681;BME280;18281;51.364;9.566;2022-09-21T09:36:38;101187.00;;;6.88;100.00
31681;BME280;18281;51.364;9.566;2022-09-21T09:39:14;101182.63;;;6.48;100.00
31681;BME280;18281;51.364;9.566;2022-09-21T09:50:10;101183.41;;;6.96;100.00
31681;BME280;18281;51.364;9.566;2022-09-21T09:52:37;101179.41;;;6.78;100.00
31681;BME280;18281;51.364;9.566;2022-09-21T09:55:21;101169.22;;;7.07;100.00
31681;BME280;18281;51.364;9.566;2022-09-21T09:57:48;101171.19;;;6.98;100.00
31681;BME280;18281;51.364;9.566;2022-09-21T10:00:22;101166.25;;;7.24;100.00
31681;BME280;18281;51.364;9.566;2022-09-21T10:02:57;101170.75;;;7.88;100.00
31681;BME280;18281;51.364;9.566;2022-09-21T10:05:36;101161.78;;;8.32;100.00
31681;BME280;18281;51.364;9.566;2022-09-21T10:08:30;101157.84;;;8.17;100.00
31681;BME280;18281;51.364;9.566;2022-09-21T10:11:17;101153.72;;;8.08;100.00
31681;BME280;18281;51.364;9.566;2022-09-21T10:13:46;101146.25;;;8.58;100.00
31681;BME280;18281;51.364;9.566;2022-09-21T10:16:20;101138.16;;;8.96;100.00
31681;BME280;18281;51.364;9.566;2022-09-21T10:18:59;101139.59;;;8.77;100.00
31681;BME280;18281;51.364;9.566;2022-09-21T10:21:48;101136.84;;;8.81;100.00
31681;BME280;18281;51.364;9.566;2022-09-21T10:24:27;101129.97;;;9.34;100.00
31681;BME280;18281;51.364;9.566;2022-09-21T10:26:55;101132.66;;;9.59;100.00
31681;BME280;18281;51.364;9.566;2022-09-21T10:29:48;101136.91;;;9.63;100.00
31681;BME280;18281;51.364;9.566;2022-09-21T10:32:26;101129.25;;;9.55;100.00
31681;BME280;18281;51.364;9.566;2022-09-21T10:35:13;101119.75;;;10.05;100.00
31681;BME280;18281;51.364;9.566;2022-09-21T10:37:46;101118.69;;;10.34;100.00
31681;BME280;18281;51.364;9.566;2022-09-21T10:40:23;101115.66;;;10.45;100.00
31681;BME280;18281;51.364;9.566;2022-09-21T10:42:50;101110.69;;;10.14;100.00
31681;BME280;18281;51.364;9.566;2022-09-21T10:45:20;101107.88;;;10.18;100.00
31681;BME280;18281;51.364;9.566;2022-09-21T10:47:51;101102.81;;;10.61;100.00
31681;BME280;18281;51.364;9.566;2022-09-21T10:50:27;101104.19;;;10.71;100.00
31681;BME280;18281;51.364;9.566;2022-09-21T10:56:16;101092.84;;;10.93;97.44
31681;BME280;18281;51.364;9.566;2022-09-21T11:01:45;101079.84;;;11.33;96.66
31681;BME280;18281;51.364;9.566;2022-09-21T11:07:40;101083.53;;;11.29;96.08
31681;BME280;18281;51.364;9.566;2022-09-21T11:13:16;101073.75;;;11.53;95.36
31681;BME280;18281;51.364;9.566;2022-09-21T11:15:54;101069.47;;;12.12;95.21
31681;BME280;18281;51.364;9.566;2022-09-21T11:18:44;101072.44;;;12.23;93.30
31681;BME280;18281;51.364;9.566;2022-09-21T11:21:47;101071.09;;;12.34;92.07
31681;BME280;18281;51.364;9.566;2022-09-21T11:24:28;101065.69;;;12.75;89.90
31681;BME280;18281;51.364;9.566;2022-09-21T11:30:00;101055.22;;;12.35;87.68
31681;BME280;18281;51.364;9.566;2022-09-21T11:41:03;101050.31;;;12.08;85.70
31681;BME280;18281;51.364;9.566;2022-09-21T11:46:47;101054.31;;;12.17;88.41
31681;BME280;18281;51.364;9.566;2022-09-21T12:02:42;101029.00;;;11.94;87.48
31681;BME280;18281;51.364;9.566;2022-09-21T12:05:14;101033.44;;;11.52;84.54
31681;BME280;18281;51.364;9.566;2022-09-21T12:07:57;101021.34;;;11.89;80.04
31681;BME280;18281;51.364;9.566;2022-09-21T12:10:44;101024.97;;;12.25;80.82
31681;BME280;18281;51.364;9.566;2022-09-21T12:13:37;101023.34;;;12.03;79.87
31681;BME280;18281;51.364;9.566;2022-09-21T12:16:12;101025.41;;;11.97;81.29
31681;BME280;18281;51.364;9.566;2022-09-21T12:19:11;101014.09;;;12.14;81.13
31681;BME280;18281;51.364;9.566;2022-09-21T12:21:40;101023.41;;;12.21;82.90
31681;BME280;18281;51.364;9.566;2022-09-21T12:24:20;101020.38;;;12.11;80.78
31681;BME280;18281;51.364;9.566;2022-09-21T12:26:54;101013.69;;;11.83;80.69
31681;BME280;18281;51.364;9.566;2022-09-21T12:29:41;101015.50;;;12.40;79.62
31681;BME280;18281;51.364;9.566;2022-09-21T12:34:42;101009.31;;;12.97;79.64
31681;BME280;18281;51.364;9.566;2022-09-21T12:37:22;101003.88;;;13.00;75.93
31681;BME280;18281;51.364;9.566;2022-09-21T12:40:01;101011.78;;;13.17;76.28
31681;BME280;18281;51.364;9.566;2022-09-21T12:42:42;101003.50;;;13.76;82.46
31681;BME280;18281;51.364;9.566;2022-09-21T12:45:28;100985.59;;;13.99;79.56
31681;BME280;18281;51.364;9.566;2022-09-21T12:48:34;100989.19;;;13.80;72.75
31681;BME280;18281;51.364;9.566;2022-09-21T12:53:52;100987.97;;;14.19;78.73
31681;BME280;18281;51.364;9.566;2022-09-21T12:56:28;100988.97;;;13.85;76.85
31681;BME280;18281;51.364;9.566;2022-09-21T13:07:28;100983.81;;;13.99;76.80
31681;BME280;18281;51.364;9.566;2022-09-21T13:10:06;100976.41;;;14.38;77.37
31681;BME280;18281;51.364;9.566;2022-09-21T13:12:38;100986.63;;;14.44;76.14
31681;BME280;18281;51.364;9.566;2022-09-21T13:15:17;100976.94;;;14.75;78.68
31681;BME280;18281;51.364;9.566;2022-09-21T13:17:56;100975.47;;;14.23;77.96
31681;BME280;18281;51.364;9.566;2022-09-21T13:20:24;100972.28;;;14.64;78.59
31681;BME280;18281;51.364;9.566;2022-09-21T13:22:57;100969.88;;;14.59;76.89
31681;BME280;18281;51.364;9.566;2022-09-21T13:25:26;100967.69;;;14.68;77.75
31681;BME280;18281;51.364;9.566;2022-09-21T13:30:40;100969.94;;;14.12;75.37
31681;BME280;18281;51.364;9.566;2022-09-21T13:40:52;100967.63;;;13.89;77.92
31681;BME280;18281;51.364;9.566;2022-09-21T13:43:22;100963.28;;;14.20;80.92
31681;BME280;18281;51.364;9.566;2022-09-21T13:45:51;100960.03;;;14.31;80.85
31681;BME280;18281;51.364;9.566;2022-09-21T13:48:21;100961.56;;;14.19;81.63
31681;BME280;18281;51.364;9.566;2022-09-21T13:50:55;100955.22;;;14.07;79.82
31681;BME280;18281;51.364;9.566;2022-09-21T13:53:34;100961.00;;;14.14;81.67
31681;BME280;18281;51.364;9.566;2022-09-21T13:56:14;100953.31;;;13.93;79.89
31681;BME280;18281;51.364;9.566;2022-09-21T13:58:43;100951.63;;;13.75;79.88
31681;BME280;18281;51.364;9.566;2022-09-21T14:03:42;100948.84;;;13.78;83.42
31681;BME280;18281;51.364;9.566;2022-09-21T14:06:22;100941.56;;;13.99;82.89
31681;BME280;18281;51.364;9.566;2022-09-21T14:08:59;100945.81;;;14.02;83.43
31681;BME280;18281;51.364;9.566;2022-09-21T14:27:19;100932.38;;;13.23;83.25
31681;BME280;18281;51.364;9.566;2022-09-21T14:30:04;100937.56;;;12.90;83.18
31681;BME280;18281;51.364;9.566;2022-09-21T14:32:39;100939.09;;;12.22;87.10
31681;BME280;18281;51.364;9.566;2022-09-21T14:35:21;100939.03;;;12.78;85.94
31681;BME280;18281;51.364;9.566;2022-09-21T14:40:24;100932.06;;;13.12;86.54
31681;BME280;18281;51.364;9.566;2022-09-21T14:42:55;100927.16;;;12.52;87.10
31681;BME280;18281;51.364;9.566;2022-09-21T14:57:18;100931.72;;;12.12;88.12
31681;BME280;18281;51.364;9.566;2022-09-21T15:00:21;100923.50;;;12.37;87.71
31681;BME280;18281;51.364;9.566;2022-09-21T15:05:57;100922.91;;;11.94;90.01
31681;BME280;18281;51.364;9.566;2022-09-21T15:08:46;100918.25;;;11.80;86.55
31681;BME280;18281;51.364;9.566;2022-09-21T15:11:43;100912.44;;;12.11;87.00
31681;BME280;18281;51.364;9.566;2022-09-21T15:14:35;100906.97;;;11.97;84.13
31681;BME280;18281;51.364;9.566;2022-09-21T15:17:21;100913.06;;;12.16;85.50
31681;BME280;18281;51.364;9.566;2022-09-21T15:19:48;100911.13;;;11.82;79.92
31681;BME280;18281;51.364;9.566;2022-09-21T15:22:19;100908.88;;;12.12;82.47
31681;BME280;18281;51.364;9.566;2022-09-21T15:27:15;100908.75;;;11.96;79.87
31681;BME280;18281;51.364;9.566;2022-09-21T15:29:43;100906.72;;;11.63;82.51
31681;BME280;18281;51.364;9.566;2022-09-21T15:32:29;100911.56;;;11.72;83.88
31681;BME280;18281;51.364;9.566;2022-09-21T15:35:05;100909.69;;;11.55;83.47
31681;BME280;18281;51.364;9.566;2022-09-21T15:37:35;100914.03;;;11.56;84.65
31681;BME280;18281;51.364;9.566;2022-09-21T15:40:05;100912.97;;;11.61;86.83
31681;BME280;18281;51.364;9.566;2022-09-21T15:42:33;100908.28;;;11.86;86.70
31681;BME280;18281;51.364;9.566;2022-09-21T15:45:16;100916.09;;;11.89;86.56
31681;BME280;18281;51.364;9.566;2022-09-21T15:47:42;100907.31;;;12.08;86.88
31681;BME280;18281;51.364;9.566;2022-09-21T15:50:16;100903.06;;;12.05;86.88
31681;BME280;18281;51.364;9.566;2022-09-21T15:52:51;100906.06;;;11.98;86.99
31681;BME280;18281;51.364;9.566;2022-09-21T15:55:20;100905.72;;;11.85;87.39
31681;BME280;18281;51.364;9.566;2022-09-21T15:57:51;100910.22;;;11.64;88.54
31681;BME280;18281;51.364;9.566;2022-09-21T16:00:18;100909.22;;;11.85;88.86
31681;BME280;18281;51.364;9.566;2022-09-21T16:02:56;100904.09;;;11.82;88.19
31681;BME280;18281;51.364;9.566;2022-09-21T16:05:30;100904.97;;;11.83;87.85